createdAt,value
2022-07-30T00:01:14.807Z,4.87
2022-07-30T00:03:41.589Z,5.43
2022-07-30T00:06:08.448Z,4.63
2022-07-30T00:08:34.957Z,4.13
2022-07-30T00:11:01.708Z,4.17
2022-07-30T00:13:28.266Z,4.63
2022-07-30T00:15:54.928Z,4.57
2022-07-30T00:18:21.816Z,4.87
2022-07-30T00:20:49.386Z,4.00
2022-07-30T00:23:17.174Z,4.83
2022-07-30T00:25:44.209Z,4.53
2022-07-30T00:28:10.824Z,4.40
2022-07-30T00:30:38.812Z,4.60
2022-07-30T00:33:05.424Z,4.93
2022-07-30T00:35:34.991Z,5.40
2022-07-30T00:38:01.698Z,4.93
2022-07-30T00:40:28.433Z,4.63
2022-07-30T00:42:54.951Z,6.37
2022-07-30T00:45:21.796Z,6.70
2022-07-30T00:47:48.368Z,5.90
2022-07-30T00:50:15.731Z,4.57
2022-07-30T00:52:42.877Z,4.73
2022-07-30T00:55:11.156Z,4.93
2022-07-30T00:57:37.963Z,5.63
2022-07-30T01:00:08.722Z,4.83
2022-07-30T01:02:35.641Z,4.70
2022-07-30T01:05:02.210Z,4.80
2022-07-30T01:07:28.753Z,5.27
2022-07-30T01:09:55.282Z,5.30
2022-07-30T01:12:25.068Z,5.97
2022-07-30T01:14:51.912Z,6.10
2022-07-30T01:17:18.500Z,5.13
2022-07-30T01:19:48.750Z,5.40
2022-07-30T01:22:31.037Z,5.10
2022-07-30T01:25:04.001Z,5.00
2022-07-30T01:27:50.804Z,5.50
2022-07-30T01:30:19.996Z,5.67
2022-07-30T01:32:47.224Z,4.20
2022-07-30T01:35:14.341Z,4.73
2022-07-30T01:37:41.387Z,4.73
2022-07-30T01:40:09.164Z,4.63
2022-07-30T01:42:36.463Z,4.50
2022-07-30T01:45:04.641Z,4.83
2022-07-30T01:47:33.752Z,4.83
2022-07-30T01:50:00.706Z,5.23
2022-07-30T01:52:31.067Z,4.80
2022-07-30T01:54:58.536Z,4.77
2022-07-30T01:57:26.000Z,4.90
2022-07-30T01:59:57.236Z,5.90
2022-07-30T02:02:23.812Z,6.30
2022-07-30T02:04:50.569Z,6.80
2022-07-30T02:07:21.332Z,5.07
2022-07-30T02:09:58.219Z,5.77
2022-07-30T02:12:29.024Z,5.73
2022-07-30T02:15:10.202Z,5.53
2022-07-30T02:17:45.065Z,4.83
2022-07-30T02:20:13.720Z,4.67
2022-07-30T02:22:43.915Z,4.50
2022-07-30T02:25:16.188Z,4.90
2022-07-30T02:27:43.563Z,5.37
2022-07-30T02:30:10.911Z,5.80
2022-07-30T02:32:39.589Z,5.33
2022-07-30T02:35:14.488Z,4.77
2022-07-30T02:37:43.837Z,5.50
2022-07-30T02:40:14.873Z,4.87
2022-07-30T02:42:43.278Z,5.07
2022-07-30T02:45:10.772Z,4.30
2022-07-30T02:47:38.964Z,5.17
2022-07-30T02:50:06.735Z,4.80
2022-07-30T02:52:34.200Z,6.73
2022-07-30T02:55:01.286Z,4.90
2022-07-30T02:57:28.092Z,5.50
2022-07-30T02:59:55.316Z,5.10
2022-07-30T03:02:29.017Z,4.53
2022-07-30T03:04:57.901Z,4.47
2022-07-30T03:07:25.383Z,5.27
2022-07-30T03:09:55.217Z,4.67
2022-07-30T03:12:22.151Z,4.50
2022-07-30T03:14:48.694Z,5.30
2022-07-30T03:17:16.106Z,4.33
2022-07-30T03:19:43.528Z,5.03
2022-07-30T03:22:10.868Z,4.93
2022-07-30T03:24:39.355Z,5.47
2022-07-30T03:27:10.220Z,5.90
2022-07-30T03:29:37.880Z,5.30
2022-07-30T03:32:05.817Z,4.73
2022-07-30T03:34:34.993Z,5.37
2022-07-30T03:37:04.873Z,6.23
2022-07-30T03:39:35.674Z,5.23
2022-07-30T03:42:03.425Z,5.60
2022-07-30T03:44:30.944Z,5.37
2022-07-30T03:46:57.945Z,4.40
2022-07-30T03:49:25.643Z,4.50
2022-07-30T03:51:53.820Z,4.33
2022-07-30T03:54:20.705Z,4.80
2022-07-30T03:56:47.640Z,4.67
2022-07-30T03:59:14.304Z,4.77
2022-07-30T04:01:40.979Z,5.23
2022-07-30T04:04:08.342Z,4.87
2022-07-30T04:06:43.033Z,4.50
2022-07-30T04:09:10.919Z,4.87
2022-07-30T04:11:41.378Z,4.63
2022-07-30T04:14:09.060Z,4.80
2022-07-30T04:16:52.662Z,5.13
2022-07-30T04:19:25.676Z,5.27
2022-07-30T04:21:54.423Z,5.20
2022-07-30T04:24:22.327Z,5.17
2022-07-30T04:26:49.259Z,5.03
2022-07-30T04:29:19.165Z,5.50
2022-07-30T04:31:49.280Z,5.43
2022-07-30T04:34:16.019Z,4.33
2022-07-30T04:36:43.083Z,5.30
2022-07-30T04:39:10.147Z,4.60
2022-07-30T04:41:49.637Z,6.10
2022-07-30T04:44:20.186Z,5.80
2022-07-30T04:46:47.815Z,6.97
2022-07-30T04:49:16.401Z,5.67
2022-07-30T04:51:43.513Z,6.20
2022-07-30T04:54:15.502Z,5.97
2022-07-30T04:56:52.563Z,6.30
2022-07-30T04:59:21.915Z,7.03
2022-07-30T05:01:52.503Z,6.50
2022-07-30T05:04:19.703Z,8.50
2022-07-30T05:06:46.899Z,7.27
2022-07-30T05:09:16.011Z,6.50
2022-07-30T05:11:42.682Z,7.60
2022-07-30T05:14:09.223Z,6.90
2022-07-30T05:16:35.821Z,6.20
2022-07-30T05:19:02.365Z,8.13
2022-07-30T05:21:34.488Z,7.80
2022-07-30T05:24:00.992Z,5.70
2022-07-30T05:26:27.948Z,6.40
2022-07-30T05:28:56.565Z,6.60
2022-07-30T05:31:24.046Z,6.53
2022-07-30T05:33:51.517Z,6.37
2022-07-30T05:36:19.077Z,5.60
2022-07-30T05:38:45.627Z,6.67
2022-07-30T05:41:19.177Z,6.17
2022-07-30T05:43:58.660Z,5.57
2022-07-30T05:46:25.341Z,7.27
2022-07-30T05:48:51.995Z,5.70
2022-07-30T05:51:20.756Z,5.47
2022-07-30T05:53:47.356Z,5.80
2022-07-30T05:56:14.065Z,5.37
2022-07-30T05:58:40.812Z,5.40
2022-07-30T06:01:07.368Z,5.20
2022-07-30T06:03:34.895Z,4.70
2022-07-30T06:06:04.146Z,4.87
2022-07-30T06:08:30.657Z,4.50
2022-07-30T06:10:57.201Z,4.47
2022-07-30T06:13:23.679Z,5.60
2022-07-30T06:15:50.313Z,4.87
2022-07-30T06:18:16.811Z,4.33
2022-07-30T06:20:43.389Z,3.73
2022-07-30T06:23:09.894Z,4.47
2022-07-30T06:25:36.469Z,5.13
2022-07-30T06:28:21.326Z,3.47
2022-07-30T06:30:53.152Z,4.57
2022-07-30T06:33:19.745Z,4.20
2022-07-30T06:35:46.326Z,3.63
2022-07-30T06:38:12.866Z,5.07
2022-07-30T06:40:39.957Z,3.67
2022-07-30T06:43:06.485Z,4.30
2022-07-30T06:45:33.078Z,4.47
2022-07-30T06:47:59.942Z,5.37
2022-07-30T06:50:26.657Z,4.43
2022-07-30T06:52:53.320Z,4.67
2022-07-30T06:55:19.843Z,5.07
2022-07-30T06:57:46.319Z,3.60
2022-07-30T07:00:13.520Z,5.13
2022-07-30T07:02:40.103Z,4.57
2022-07-30T07:05:07.542Z,5.27
2022-07-30T07:07:42.400Z,5.23
2022-07-30T07:10:13.267Z,4.30
2022-07-30T07:12:39.825Z,4.27
2022-07-30T07:15:07.105Z,5.47
2022-07-30T07:17:33.632Z,4.30
2022-07-30T07:20:02.623Z,4.20
2022-07-30T07:22:29.541Z,5.03
2022-07-30T07:24:56.155Z,4.40
2022-07-30T07:27:22.836Z,4.63
2022-07-30T07:30:05.051Z,4.30
2022-07-30T07:32:32.919Z,4.80
2022-07-30T07:34:59.441Z,6.03
2022-07-30T07:37:25.947Z,7.33
2022-07-30T07:39:52.498Z,5.30
2022-07-30T07:42:19.007Z,4.53
2022-07-30T07:44:45.500Z,4.90
2022-07-30T07:47:12.082Z,4.97
2022-07-30T07:49:38.660Z,5.13
2022-07-30T07:52:05.584Z,4.90
2022-07-30T07:54:32.268Z,5.10
2022-07-30T07:56:59.298Z,4.67
2022-07-30T07:59:35.868Z,5.40
2022-07-30T08:02:06.124Z,4.67
2022-07-30T08:04:34.568Z,5.57
2022-07-30T08:07:01.338Z,5.40
2022-07-30T08:09:43.791Z,4.57
2022-07-30T08:12:12.790Z,5.33
2022-07-30T08:14:39.781Z,5.37
2022-07-30T08:17:06.796Z,4.63
2022-07-30T08:19:34.028Z,4.53
2022-07-30T08:22:00.617Z,5.50
2022-07-30T08:24:27.145Z,4.70
2022-07-30T08:26:53.905Z,4.67
2022-07-30T08:29:20.503Z,4.30
2022-07-30T08:31:47.082Z,5.00
2022-07-30T08:34:13.758Z,4.10
2022-07-30T08:36:40.747Z,4.47
2022-07-30T08:39:07.320Z,4.97
2022-07-30T08:41:33.934Z,4.20
2022-07-30T08:44:01.608Z,4.57
2022-07-30T08:46:31.480Z,4.60
2022-07-30T08:48:59.847Z,6.07
2022-07-30T08:51:37.863Z,4.60
2022-07-30T08:54:06.230Z,4.03
2022-07-30T08:56:34.017Z,3.93
2022-07-30T08:59:01.328Z,5.30
2022-07-30T09:01:28.191Z,3.70
2022-07-30T09:03:54.826Z,4.23
2022-07-30T09:06:21.397Z,4.57
2022-07-30T09:08:48.058Z,4.33
2022-07-30T09:11:14.561Z,4.23
2022-07-30T09:13:42.594Z,4.03
2022-07-30T09:16:25.758Z,4.20
2022-07-30T09:18:53.517Z,3.93
2022-07-30T09:21:25.672Z,3.90
2022-07-30T09:23:58.000Z,4.80
2022-07-30T09:26:25.130Z,4.53
2022-07-30T09:28:51.924Z,4.27
2022-07-30T09:31:18.760Z,3.63
2022-07-30T09:33:47.337Z,3.90
2022-07-30T09:36:16.863Z,4.70
2022-07-30T09:38:47.865Z,4.00
2022-07-30T09:41:37.718Z,5.17
2022-07-30T09:44:04.246Z,4.33
2022-07-30T09:47:03.057Z,4.33
2022-07-30T09:49:29.847Z,4.90
2022-07-30T09:51:57.525Z,4.80
2022-07-30T09:54:51.163Z,3.60
2022-07-30T09:57:26.319Z,5.40
2022-07-30T09:59:55.451Z,3.60
2022-07-30T10:02:29.287Z,4.70
2022-07-30T10:05:16.167Z,4.40
2022-07-30T10:07:52.450Z,4.80
2022-07-30T10:10:25.478Z,4.20
2022-07-30T10:12:58.342Z,4.57
2022-07-30T10:15:27.998Z,4.07
2022-07-30T10:17:54.621Z,4.30
2022-07-30T10:20:21.530Z,5.00
2022-07-30T10:22:50.150Z,4.93
2022-07-30T10:25:23.200Z,5.50
2022-07-30T10:27:57.096Z,4.13
2022-07-30T10:30:27.924Z,3.93
2022-07-30T10:32:57.544Z,3.70
2022-07-30T10:35:35.026Z,4.07
2022-07-30T10:38:10.010Z,4.90
2022-07-30T10:40:48.845Z,5.20
2022-07-30T10:44:00.408Z,4.70
2022-07-30T10:46:38.194Z,4.70
2022-07-30T10:49:12.538Z,6.20
2022-07-30T10:51:47.776Z,4.70
2022-07-30T10:54:33.411Z,4.80
2022-07-30T10:57:14.733Z,5.53
2022-07-30T10:59:59.939Z,4.60
2022-07-30T11:02:28.681Z,4.80
2022-07-30T11:05:45.100Z,5.77
2022-07-30T11:08:50.501Z,5.67
2022-07-30T11:11:59.075Z,5.20
2022-07-30T11:14:09.783Z,6.20
2022-07-30T11:16:36.959Z,5.90
2022-07-30T11:19:54.875Z,6.37
2022-07-30T11:22:44.801Z,6.50
2022-07-30T11:25:50.102Z,6.10
2022-07-30T11:28:51.947Z,5.70
2022-07-30T11:31:56.313Z,6.07
2022-07-30T11:34:18.148Z,5.60
2022-07-30T11:37:19.153Z,5.43
2022-07-30T11:39:56.215Z,5.10
2022-07-30T11:42:26.814Z,4.53
2022-07-30T11:44:53.687Z,6.47
2022-07-30T11:47:20.422Z,5.80
2022-07-30T11:49:47.256Z,6.67
2022-07-30T11:52:13.777Z,6.93
2022-07-30T11:54:54.174Z,5.20
2022-07-30T11:57:20.755Z,5.07
2022-07-30T11:59:58.074Z,5.97
2022-07-30T12:02:28.436Z,6.33
2022-07-30T12:04:55.100Z,6.77
2022-07-30T12:07:24.698Z,5.93
2022-07-30T12:09:51.228Z,5.73
2022-07-30T12:12:24.490Z,6.13
2022-07-30T12:14:51.337Z,5.47
2022-07-30T12:17:19.367Z,5.50
2022-07-30T12:19:49.996Z,5.50
2022-07-30T12:22:16.580Z,5.73
2022-07-30T12:24:43.073Z,5.50
2022-07-30T12:27:10.132Z,5.43
2022-07-30T12:29:36.914Z,5.13
2022-07-30T12:32:03.863Z,5.50
2022-07-30T12:34:30.362Z,5.50
2022-07-30T12:37:07.576Z,6.00
2022-07-30T12:39:34.318Z,5.30
2022-07-30T12:42:00.865Z,4.43
2022-07-30T12:44:37.322Z,4.13
2022-07-30T12:47:06.195Z,4.40
2022-07-30T12:49:36.901Z,5.03
2022-07-30T12:52:09.626Z,5.77
2022-07-30T12:54:38.385Z,5.30
2022-07-30T12:57:06.381Z,4.70
2022-07-30T12:59:33.863Z,4.90
2022-07-30T13:02:00.952Z,4.07
2022-07-30T13:04:28.295Z,4.80
2022-07-30T13:07:08.542Z,4.60
2022-07-30T13:09:35.312Z,5.80
2022-07-30T13:12:02.194Z,4.30
2022-07-30T13:14:28.958Z,4.27
2022-07-30T13:16:58.861Z,4.03
2022-07-30T13:19:26.749Z,3.83
2022-07-30T13:21:53.336Z,3.67
2022-07-30T13:24:20.169Z,3.70
2022-07-30T13:26:47.112Z,4.07
2022-07-30T13:29:13.945Z,4.17
2022-07-30T13:31:43.145Z,4.57
2022-07-30T13:34:10.810Z,4.20
2022-07-30T13:36:37.348Z,4.57
2022-07-30T13:39:03.934Z,4.27
2022-07-30T13:41:30.532Z,4.00
2022-07-30T13:43:57.025Z,4.20
2022-07-30T13:46:23.551Z,3.50
2022-07-30T13:48:50.191Z,3.80
2022-07-30T13:51:16.861Z,4.10
2022-07-30T13:53:43.378Z,4.97
2022-07-30T13:56:12.670Z,3.50
2022-07-30T13:58:40.064Z,3.57
2022-07-30T14:01:07.174Z,3.73
2022-07-30T14:03:34.299Z,3.40
2022-07-30T14:06:10.060Z,4.23
2022-07-30T14:08:38.374Z,4.00
2022-07-30T14:11:05.069Z,3.23
2022-07-30T14:13:31.626Z,2.97
2022-07-30T14:15:58.516Z,3.87
2022-07-30T14:18:24.989Z,3.50
2022-07-30T14:20:53.729Z,3.57
2022-07-30T14:23:20.605Z,3.90
2022-07-30T14:25:47.278Z,3.93
2022-07-30T14:28:14.113Z,4.50
2022-07-30T14:30:40.709Z,3.10
2022-07-30T14:33:08.220Z,3.80
2022-07-30T14:35:34.761Z,4.07
2022-07-30T14:38:03.352Z,3.97
2022-07-30T14:40:30.203Z,4.03
2022-07-30T14:42:56.704Z,3.70
2022-07-30T14:45:24.578Z,4.70
2022-07-30T14:47:52.316Z,4.47
2022-07-30T14:50:19.103Z,5.03
2022-07-30T14:52:47.463Z,4.70
2022-07-30T14:55:14.286Z,4.33
2022-07-30T14:57:40.939Z,4.53
2022-07-30T15:00:11.850Z,4.30
2022-07-30T15:02:38.719Z,4.67
2022-07-30T15:05:05.693Z,5.37
2022-07-30T15:07:34.543Z,4.00
2022-07-30T15:10:01.724Z,4.80
2022-07-30T15:12:28.424Z,3.73
2022-07-30T15:14:55.549Z,3.93
2022-07-30T15:17:22.154Z,3.93
2022-07-30T15:19:50.195Z,4.03
2022-07-30T15:22:18.997Z,4.13
2022-07-30T15:24:45.509Z,4.50
2022-07-30T15:27:12.108Z,4.00
2022-07-30T15:29:38.669Z,3.97
2022-07-30T15:32:05.971Z,4.47
2022-07-30T15:34:34.392Z,4.00
2022-07-30T15:37:05.408Z,3.50
2022-07-30T15:39:33.181Z,3.33
2022-07-30T15:42:01.658Z,3.40
2022-07-30T15:44:28.758Z,2.90
2022-07-30T15:46:55.388Z,3.10
2022-07-30T15:49:22.192Z,3.87
2022-07-30T15:51:49.223Z,3.27
2022-07-30T15:54:16.656Z,3.27
2022-07-30T15:56:49.691Z,3.40
2022-07-30T15:59:16.405Z,3.50
2022-07-30T16:01:44.600Z,3.80
2022-07-30T16:04:20.023Z,3.67
2022-07-30T16:06:48.042Z,3.10
2022-07-30T16:09:17.741Z,3.90
2022-07-30T16:11:44.264Z,4.10
2022-07-30T16:14:13.389Z,3.30
2022-07-30T16:16:39.875Z,3.20
2022-07-30T16:19:07.225Z,3.90
2022-07-30T16:21:34.357Z,3.37
2022-07-30T16:24:00.825Z,3.77
2022-07-30T16:26:27.484Z,3.87
2022-07-30T16:28:53.982Z,3.13
2022-07-30T16:31:20.479Z,3.20
2022-07-30T16:33:47.335Z,3.80
2022-07-30T16:36:14.379Z,3.97
2022-07-30T16:38:41.211Z,3.40
2022-07-30T16:41:11.662Z,3.40
2022-07-30T16:43:39.801Z,4.00
2022-07-30T16:46:06.389Z,3.77
2022-07-30T16:48:32.896Z,4.33
2022-07-30T16:50:59.725Z,4.00
2022-07-30T16:53:26.766Z,3.80
2022-07-30T16:55:53.316Z,5.30
2022-07-30T16:58:21.406Z,4.53
2022-07-30T17:00:55.155Z,3.73
2022-07-30T17:03:21.763Z,3.90
2022-07-30T17:05:48.494Z,4.10
2022-07-30T17:08:15.409Z,4.63
2022-07-30T17:10:44.851Z,5.80
2022-07-30T17:13:11.862Z,4.20
2022-07-30T17:15:39.128Z,4.07
2022-07-30T17:18:05.694Z,4.23
2022-07-30T17:20:32.396Z,4.10
2022-07-30T17:22:58.921Z,4.57
2022-07-30T17:25:27.434Z,4.33
2022-07-30T17:27:58.341Z,4.53
2022-07-30T17:30:26.523Z,4.10
2022-07-30T17:32:53.131Z,5.57
2022-07-30T17:35:19.903Z,4.63
2022-07-30T17:37:46.456Z,4.50
2022-07-30T17:40:27.279Z,4.47
2022-07-30T17:43:03.380Z,4.30
2022-07-30T17:45:31.049Z,4.10
2022-07-30T17:47:57.905Z,4.67
2022-07-30T17:50:24.518Z,5.23
2022-07-30T17:52:51.001Z,5.47
2022-07-30T17:55:17.636Z,5.10
2022-07-30T17:57:44.161Z,5.07
2022-07-30T18:00:11.158Z,4.43
2022-07-30T18:02:37.722Z,4.83
2022-07-30T18:05:04.599Z,4.60
2022-07-30T18:07:31.291Z,4.80
2022-07-30T18:09:57.769Z,7.07
2022-07-30T18:12:24.307Z,6.40
2022-07-30T18:14:50.911Z,4.90
2022-07-30T18:17:17.582Z,5.10
2022-07-30T18:19:44.321Z,4.90
2022-07-30T18:22:14.633Z,5.20
2022-07-30T18:24:43.667Z,5.10
2022-07-30T18:27:12.115Z,5.03
2022-07-30T18:29:38.913Z,4.53
2022-07-30T18:32:06.243Z,4.50
2022-07-30T18:34:33.139Z,4.00
2022-07-30T18:37:00.150Z,4.87
2022-07-30T18:39:26.864Z,4.77
2022-07-30T18:41:53.421Z,5.83
2022-07-30T18:44:20.187Z,5.33
2022-07-30T18:46:47.882Z,4.37
2022-07-30T18:49:35.659Z,4.30
2022-07-30T18:52:02.773Z,4.80
2022-07-30T18:54:30.608Z,4.70
2022-07-30T18:56:57.560Z,5.07
2022-07-30T18:59:24.436Z,5.17
2022-07-30T19:01:51.047Z,4.47
2022-07-30T19:04:17.628Z,4.20
2022-07-30T19:06:44.725Z,5.47
2022-07-30T19:09:17.298Z,4.80
2022-07-30T19:11:44.765Z,4.03
2022-07-30T19:14:13.146Z,5.03
2022-07-30T19:16:40.051Z,4.60
2022-07-30T19:19:06.509Z,4.80
2022-07-30T19:21:33.261Z,5.10
2022-07-30T19:23:59.881Z,5.30
2022-07-30T19:26:26.461Z,5.53
2022-07-30T19:28:52.938Z,4.83
2022-07-30T19:31:19.617Z,4.07
2022-07-30T19:33:46.077Z,4.80
2022-07-30T19:36:15.129Z,4.07
2022-07-30T19:38:44.241Z,4.50
2022-07-30T19:41:11.863Z,5.00
2022-07-30T19:43:40.825Z,5.27
2022-07-30T19:46:07.634Z,4.70
2022-07-30T19:48:37.241Z,5.30
2022-07-30T19:51:04.492Z,5.10
2022-07-30T19:53:34.160Z,4.50
2022-07-30T19:56:03.242Z,4.60
2022-07-30T19:58:30.832Z,5.13
2022-07-30T20:00:57.506Z,5.33
2022-07-30T20:03:26.153Z,4.60
2022-07-30T20:05:59.284Z,5.90
2022-07-30T20:08:27.371Z,4.60
2022-07-30T20:10:57.659Z,5.53
2022-07-30T20:13:43.981Z,5.37
2022-07-30T20:16:15.754Z,5.00
2022-07-30T20:18:43.093Z,4.00
2022-07-30T20:21:15.187Z,4.20
2022-07-30T20:23:43.015Z,4.27
2022-07-30T20:26:13.005Z,3.50
2022-07-30T20:28:45.639Z,4.37
2022-07-30T20:31:12.722Z,4.57
2022-07-30T20:33:40.107Z,4.20
2022-07-30T20:36:09.873Z,4.40
2022-07-30T20:38:38.907Z,5.57
2022-07-30T20:41:09.900Z,5.10
2022-07-30T20:43:51.560Z,4.63
2022-07-30T20:46:20.368Z,4.77
2022-07-30T20:48:46.963Z,4.50
2022-07-30T20:51:13.887Z,4.10
2022-07-30T20:53:41.911Z,3.93
2022-07-30T20:56:12.166Z,4.53
2022-07-30T20:58:40.363Z,4.87
2022-07-30T21:01:07.705Z,5.17
2022-07-30T21:03:34.300Z,5.00
2022-07-30T21:06:02.513Z,4.70
2022-07-30T21:08:29.072Z,4.10
2022-07-30T21:10:57.485Z,5.43
2022-07-30T21:13:26.886Z,4.90
2022-07-30T21:16:02.473Z,4.87
2022-07-30T21:18:30.060Z,5.10
2022-07-30T21:20:57.397Z,4.70
2022-07-30T21:23:24.758Z,5.40
2022-07-30T21:26:00.752Z,5.50
2022-07-30T21:28:30.010Z,4.77
2022-07-30T21:31:02.024Z,5.23
2022-07-30T21:33:31.516Z,4.93
2022-07-30T21:35:58.776Z,5.00
2022-07-30T21:38:26.594Z,5.20
2022-07-30T21:40:53.310Z,4.90
2022-07-30T21:43:22.944Z,4.43
2022-07-30T21:45:56.503Z,4.53
2022-07-30T21:48:24.487Z,4.60
2022-07-30T21:50:51.076Z,4.63
2022-07-30T21:53:17.567Z,4.80
2022-07-30T21:55:56.746Z,5.33
2022-07-30T21:58:26.118Z,4.23
2022-07-30T22:00:55.027Z,5.30
2022-07-30T22:04:01.453Z,5.23
2022-07-30T22:06:12.665Z,4.90
2022-07-30T22:08:39.853Z,4.33
2022-07-30T22:11:08.905Z,4.60
2022-07-30T22:13:36.125Z,4.37
2022-07-30T22:16:21.339Z,4.80
2022-07-30T22:18:47.905Z,4.67
2022-07-30T22:21:14.670Z,4.80
2022-07-30T22:23:41.358Z,4.27
2022-07-30T22:26:24.201Z,4.27
2022-07-30T22:28:54.374Z,4.87
2022-07-30T22:31:21.269Z,4.60
2022-07-30T22:33:50.994Z,4.40
2022-07-30T22:36:18.899Z,4.37
2022-07-30T22:38:59.156Z,4.47
2022-07-30T22:41:26.075Z,5.90
2022-07-30T22:43:55.716Z,5.37
2022-07-30T22:46:31.134Z,4.40
2022-07-30T22:48:59.349Z,5.17
2022-07-30T22:52:01.238Z,5.47
2022-07-30T22:54:13.417Z,4.87
2022-07-30T22:56:41.372Z,4.30
2022-07-30T22:59:07.967Z,4.27
2022-07-30T23:01:34.599Z,4.57
2022-07-30T23:04:01.709Z,4.90
2022-07-30T23:06:30.042Z,5.10
2022-07-30T23:08:56.758Z,5.17
2022-07-30T23:11:23.363Z,4.93
2022-07-30T23:13:53.670Z,5.30
2022-07-30T23:16:20.352Z,4.80
2022-07-30T23:18:47.011Z,4.67
2022-07-30T23:21:14.562Z,4.50
2022-07-30T23:23:41.112Z,4.20
2022-07-30T23:26:08.517Z,5.13
2022-07-30T23:28:36.782Z,5.37
2022-07-30T23:31:04.145Z,5.20
2022-07-30T23:33:31.444Z,5.20
2022-07-30T23:36:00.195Z,5.40
2022-07-30T23:38:27.272Z,5.43
2022-07-30T23:40:54.288Z,4.90
2022-07-30T23:43:20.783Z,4.93
2022-07-30T23:45:47.255Z,5.20
2022-07-30T23:48:15.062Z,4.67
2022-07-30T23:50:41.570Z,4.63
2022-07-30T23:53:08.138Z,6.10
2022-07-30T23:55:34.711Z,5.20
2022-07-30T23:58:01.243Z,6.30
